sensor_id;sensor_type;location;lat;lon;timestamp;temperature;humidity
78438;SHT31;67736;51.978;5.656;2024-01-06T00:02:12;8.8;70.2
78438;SHT31;67736;51.978;5.656;2024-01-06T00:04:41;8.7;70.5
78438;SHT31;67736;51.978;5.656;2024-01-06T00:07:11;8.7;70.0
78438;SHT31;67736;51.978;5.656;2024-01-06T00:09:41;8.6;70.0
78438;SHT31;67736;51.978;5.656;2024-01-06T00:12:10;8.6;70.1
78438;SHT31;67736;51.978;5.656;2024-01-06T00:14:40;8.6;70.0
78438;SHT31;67736;51.978;5.656;2024-01-06T00:17:12;8.5;70.5
78438;SHT31;67736;51.978;5.656;2024-01-06T00:19:43;8.5;70.8
78438;SHT31;67736;51.978;5.656;2024-01-06T00:22:17;8.5;71.1
78438;SHT31;67736;51.978;5.656;2024-01-06T00:24:47;8.5;70.9
78438;SHT31;67736;51.978;5.656;2024-01-06T00:27:17;8.5;71.1
78438;SHT31;67736;51.978;5.656;2024-01-06T00:29:47;8.5;71.1
78438;SHT31;67736;51.978;5.656;2024-01-06T00:32:17;8.4;71.1
78438;SHT31;67736;51.978;5.656;2024-01-06T00:34:46;8.5;71.2
78438;SHT31;67736;51.978;5.656;2024-01-06T00:37:16;8.5;70.5
78438;SHT31;67736;51.978;5.656;2024-01-06T00:39:46;8.5;70.8
78438;SHT31;67736;51.978;5.656;2024-01-06T00:42:15;8.4;70.3
78438;SHT31;67736;51.978;5.656;2024-01-06T00:44:44;8.4;70.3
78438;SHT31;67736;51.978;5.656;2024-01-06T00:47:14;8.4;69.9
78438;SHT31;67736;51.978;5.656;2024-01-06T00:49:44;8.4;70.2
78438;SHT31;67736;51.978;5.656;2024-01-06T00:52:15;8.4;70.1
78438;SHT31;67736;51.978;5.656;2024-01-06T00:54:45;8.4;70.2
78438;SHT31;67736;51.978;5.656;2024-01-06T00:57:15;8.4;70.1
78438;SHT31;67736;51.978;5.656;2024-01-06T00:59:44;8.3;70.3
78438;SHT31;67736;51.978;5.656;2024-01-06T01:02:14;8.3;70.3
78438;SHT31;67736;51.978;5.656;2024-01-06T01:04:45;8.3;70.4
78438;SHT31;67736;51.978;5.656;2024-01-06T01:07:15;8.3;69.9
78438;SHT31;67736;51.978;5.656;2024-01-06T01:09:44;8.3;69.7
78438;SHT31;67736;51.978;5.656;2024-01-06T01:12:14;8.3;69.1
78438;SHT31;67736;51.978;5.656;2024-01-06T01:14:43;8.3;68.8
78438;SHT31;67736;51.978;5.656;2024-01-06T01:17:13;8.2;68.7
78438;SHT31;67736;51.978;5.656;2024-01-06T01:19:42;8.2;69.3
78438;SHT31;67736;51.978;5.656;2024-01-06T01:22:13;8.2;69.8
78438;SHT31;67736;51.978;5.656;2024-01-06T01:24:43;8.2;69.9
78438;SHT31;67736;51.978;5.656;2024-01-06T01:27:13;8.2;69.5
78438;SHT31;67736;51.978;5.656;2024-01-06T01:29:42;8.2;69.6
78438;SHT31;67736;51.978;5.656;2024-01-06T01:32:12;8.1;69.8
78438;SHT31;67736;51.978;5.656;2024-01-06T01:34:42;8.1;69.7
78438;SHT31;67736;51.978;5.656;2024-01-06T01:37:11;8.1;69.8
78438;SHT31;67736;51.978;5.656;2024-01-06T01:39:41;8.1;69.2
78438;SHT31;67736;51.978;5.656;2024-01-06T01:42:13;8.1;69.8
78438;SHT31;67736;51.978;5.656;2024-01-06T01:44:42;8.1;69.6
78438;SHT31;67736;51.978;5.656;2024-01-06T01:47:12;8.0;69.9
78438;SHT31;67736;51.978;5.656;2024-01-06T01:49:46;8.0;70.1
78438;SHT31;67736;51.978;5.656;2024-01-06T01:52:16;8.0;70.2
78438;SHT31;67736;51.978;5.656;2024-01-06T01:54:46;7.9;70.6
78438;SHT31;67736;51.978;5.656;2024-01-06T01:57:17;7.9;71.0
78438;SHT31;67736;51.978;5.656;2024-01-06T01:59:47;7.9;71.3
78438;SHT31;67736;51.978;5.656;2024-01-06T02:02:18;7.9;71.3
78438;SHT31;67736;51.978;5.656;2024-01-06T02:04:47;7.8;71.7
78438;SHT31;67736;51.978;5.656;2024-01-06T02:07:17;7.8;72.0
78438;SHT31;67736;51.978;5.656;2024-01-06T02:09:46;7.8;72.0
78438;SHT31;67736;51.978;5.656;2024-01-06T02:12:16;7.8;71.8
78438;SHT31;67736;51.978;5.656;2024-01-06T02:14:46;7.8;72.1
78438;SHT31;67736;51.978;5.656;2024-01-06T02:17:15;7.8;72.0
78438;SHT31;67736;51.978;5.656;2024-01-06T02:19:45;7.8;71.8
78438;SHT31;67736;51.978;5.656;2024-01-06T02:22:14;7.8;71.6
78438;SHT31;67736;51.978;5.656;2024-01-06T02:24:44;7.8;71.4
78438;SHT31;67736;51.978;5.656;2024-01-06T02:27:14;7.7;71.5
78438;SHT31;67736;51.978;5.656;2024-01-06T02:29:43;7.7;72.0
78438;SHT31;67736;51.978;5.656;2024-01-06T02:32:13;7.7;71.7
78438;SHT31;67736;51.978;5.656;2024-01-06T02:34:43;7.7;71.2
78438;SHT31;67736;51.978;5.656;2024-01-06T02:37:12;7.7;71.4
78438;SHT31;67736;51.978;5.656;2024-01-06T02:39:42;7.7;71.0
78438;SHT31;67736;51.978;5.656;2024-01-06T02:42:11;7.6;70.9
78438;SHT31;67736;51.978;5.656;2024-01-06T02:44:41;7.6;70.7
78438;SHT31;67736;51.978;5.656;2024-01-06T02:47:10;7.6;70.6
78438;SHT31;67736;51.978;5.656;2024-01-06T02:49:40;7.6;70.6
78438;SHT31;67736;51.978;5.656;2024-01-06T02:52:09;7.6;70.8
78438;SHT31;67736;51.978;5.656;2024-01-06T02:54:39;7.6;70.7
78438;SHT31;67736;51.978;5.656;2024-01-06T02:57:09;7.5;70.6
78438;SHT31;67736;51.978;5.656;2024-01-06T02:59:40;7.5;70.3
78438;SHT31;67736;51.978;5.656;2024-01-06T03:02:11;7.5;70.8
78438;SHT31;67736;51.978;5.656;2024-01-06T03:04:40;7.5;71.1
78438;SHT31;67736;51.978;5.656;2024-01-06T03:07:10;7.5;71.0
78438;SHT31;67736;51.978;5.656;2024-01-06T03:09:39;7.5;71.0
78438;SHT31;67736;51.978;5.656;2024-01-06T03:12:09;7.5;70.7
78438;SHT31;67736;51.978;5.656;2024-01-06T03:14:38;7.5;70.7
78438;SHT31;67736;51.978;5.656;2024-01-06T03:17:08;7.4;70.9
78438;SHT31;67736;51.978;5.656;2024-01-06T03:19:39;7.4;71.4
78438;SHT31;67736;51.978;5.656;2024-01-06T03:22:08;7.4;71.4
78438;SHT31;67736;51.978;5.656;2024-01-06T03:24:41;7.4;71.7
78438;SHT31;67736;51.978;5.656;2024-01-06T03:27:11;7.4;71.5
78438;SHT31;67736;51.978;5.656;2024-01-06T03:29:41;7.4;71.5
78438;SHT31;67736;51.978;5.656;2024-01-06T03:32:11;7.5;71.6
78438;SHT31;67736;51.978;5.656;2024-01-06T03:34:40;7.5;71.2
78438;SHT31;67736;51.978;5.656;2024-01-06T03:37:10;7.5;71.0
78438;SHT31;67736;51.978;5.656;2024-01-06T03:39:39;7.5;71.4
78438;SHT31;67736;51.978;5.656;2024-01-06T03:42:09;7.5;71.0
78438;SHT31;67736;51.978;5.656;2024-01-06T03:44:38;7.5;71.1
78438;SHT31;67736;51.978;5.656;2024-01-06T03:47:08;7.5;70.9
78438;SHT31;67736;51.978;5.656;2024-01-06T03:49:38;7.5;71.0
78438;SHT31;67736;51.978;5.656;2024-01-06T03:52:07;7.5;71.1
78438;SHT31;67736;51.978;5.656;2024-01-06T03:54:36;7.5;71.4
78438;SHT31;67736;51.978;5.656;2024-01-06T03:57:06;7.5;71.8
78438;SHT31;67736;51.978;5.656;2024-01-06T03:59:35;7.5;71.9
78438;SHT31;67736;51.978;5.656;2024-01-06T04:02:05;7.5;71.3
78438;SHT31;67736;51.978;5.656;2024-01-06T04:04:35;7.5;71.3
78438;SHT31;67736;51.978;5.656;2024-01-06T04:07:04;7.5;71.3
78438;SHT31;67736;51.978;5.656;2024-01-06T04:09:34;7.5;71.2
78438;SHT31;67736;51.978;5.656;2024-01-06T04:12:04;7.5;71.3
78438;SHT31;67736;51.978;5.656;2024-01-06T04:14:34;7.5;71.3
78438;SHT31;67736;51.978;5.656;2024-01-06T04:17:04;7.5;71.1
78438;SHT31;67736;51.978;5.656;2024-01-06T04:19:35;7.5;70.6
78438;SHT31;67736;51.978;5.656;2024-01-06T04:22:05;7.5;70.9
78438;SHT31;67736;51.978;5.656;2024-01-06T04:24:34;7.5;70.7
78438;SHT31;67736;51.978;5.656;2024-01-06T04:27:05;7.5;70.7
78438;SHT31;67736;51.978;5.656;2024-01-06T04:29:34;7.5;70.3
78438;SHT31;67736;51.978;5.656;2024-01-06T04:32:04;7.5;69.7
78438;SHT31;67736;51.978;5.656;2024-01-06T04:34:34;7.4;69.6
78438;SHT31;67736;51.978;5.656;2024-01-06T04:37:04;7.4;69.9
78438;SHT31;67736;51.978;5.656;2024-01-06T04:39:34;7.4;70.4
78438;SHT31;67736;51.978;5.656;2024-01-06T04:42:03;7.3;70.5
78438;SHT31;67736;51.978;5.656;2024-01-06T04:44:33;7.3;70.4
78438;SHT31;67736;51.978;5.656;2024-01-06T04:47:03;7.3;70.3
78438;SHT31;67736;51.978;5.656;2024-01-06T04:49:32;7.3;70.2
78438;SHT31;67736;51.978;5.656;2024-01-06T04:52:02;7.2;70.2
78438;SHT31;67736;51.978;5.656;2024-01-06T04:54:32;7.2;70.5
78438;SHT31;67736;51.978;5.656;2024-01-06T04:57:02;7.2;71.1
78438;SHT31;67736;51.978;5.656;2024-01-06T04:59:31;7.2;70.9
78438;SHT31;67736;51.978;5.656;2024-01-06T05:02:03;7.1;71.1
78438;SHT31;67736;51.978;5.656;2024-01-06T05:04:33;7.1;71.1
78438;SHT31;67736;51.978;5.656;2024-01-06T05:07:02;7.1;70.8
78438;SHT31;67736;51.978;5.656;2024-01-06T05:09:32;7.1;70.7
78438;SHT31;67736;51.978;5.656;2024-01-06T05:12:01;7.0;70.3
78438;SHT31;67736;51.978;5.656;2024-01-06T05:14:31;7.0;69.8
78438;SHT31;67736;51.978;5.656;2024-01-06T05:17:00;6.9;69.9
78438;SHT31;67736;51.978;5.656;2024-01-06T05:19:30;6.9;70.2
78438;SHT31;67736;51.978;5.656;2024-01-06T05:22:02;6.9;70.8
78438;SHT31;67736;51.978;5.656;2024-01-06T05:24:32;6.8;70.9
78438;SHT31;67736;51.978;5.656;2024-01-06T05:27:01;6.8;71.1
78438;SHT31;67736;51.978;5.656;2024-01-06T05:29:30;6.8;71.0
78438;SHT31;67736;51.978;5.656;2024-01-06T05:32:00;6.7;70.7
78438;SHT31;67736;51.978;5.656;2024-01-06T05:34:29;6.7;70.4
78438;SHT31;67736;51.978;5.656;2024-01-06T05:36:59;6.7;70.3
78438;SHT31;67736;51.978;5.656;2024-01-06T05:39:29;6.6;70.9
78438;SHT31;67736;51.978;5.656;2024-01-06T05:41:58;6.6;71.2
78438;SHT31;67736;51.978;5.656;2024-01-06T05:44:28;6.6;71.3
78438;SHT31;67736;51.978;5.656;2024-01-06T05:46:57;6.5;71.2
78438;SHT31;67736;51.978;5.656;2024-01-06T05:49:27;6.5;70.8
78438;SHT31;67736;51.978;5.656;2024-01-06T05:51:56;6.5;70.7
78438;SHT31;67736;51.978;5.656;2024-01-06T05:54:26;6.5;70.7
78438;SHT31;67736;51.978;5.656;2024-01-06T05:56:55;6.5;70.2
78438;SHT31;67736;51.978;5.656;2024-01-06T05:59:25;6.5;69.8
78438;SHT31;67736;51.978;5.656;2024-01-06T06:01:54;6.5;69.2
78438;SHT31;67736;51.978;5.656;2024-01-06T06:04:24;6.5;68.9
78438;SHT31;67736;51.978;5.656;2024-01-06T06:06:53;6.5;69.0
78438;SHT31;67736;51.978;5.656;2024-01-06T06:09:23;6.4;69.0
78438;SHT31;67736;51.978;5.656;2024-01-06T06:11:52;6.4;69.1
78438;SHT31;67736;51.978;5.656;2024-01-06T06:14:22;6.4;69.1
78438;SHT31;67736;51.978;5.656;2024-01-06T06:16:51;6.3;69.5
78438;SHT31;67736;51.978;5.656;2024-01-06T06:19:21;6.3;69.7
78438;SHT31;67736;51.978;5.656;2024-01-06T06:21:52;6.3;70.2
78438;SHT31;67736;51.978;5.656;2024-01-06T06:24:21;6.2;70.3
78438;SHT31;67736;51.978;5.656;2024-01-06T06:26:51;6.2;70.4
78438;SHT31;67736;51.978;5.656;2024-01-06T06:29:20;6.2;70.1
78438;SHT31;67736;51.978;5.656;2024-01-06T06:31:50;6.2;69.8
78438;SHT31;67736;51.978;5.656;2024-01-06T06:34:19;6.2;69.9
78438;SHT31;67736;51.978;5.656;2024-01-06T06:36:49;6.2;70.4
78438;SHT31;67736;51.978;5.656;2024-01-06T06:39:18;6.2;70.1
78438;SHT31;67736;51.978;5.656;2024-01-06T06:41:48;6.2;70.5
78438;SHT31;67736;51.978;5.656;2024-01-06T06:44:17;6.2;70.3
78438;SHT31;67736;51.978;5.656;2024-01-06T06:46:47;6.2;70.0
78438;SHT31;67736;51.978;5.656;2024-01-06T06:49:17;6.1;69.7
78438;SHT31;67736;51.978;5.656;2024-01-06T06:51:46;6.1;69.7
78438;SHT31;67736;51.978;5.656;2024-01-06T06:54:16;6.1;69.9
78438;SHT31;67736;51.978;5.656;2024-01-06T06:56:45;6.1;70.0
78438;SHT31;67736;51.978;5.656;2024-01-06T06:59:17;6.1;69.9
78438;SHT31;67736;51.978;5.656;2024-01-06T07:01:46;6.1;70.0
78438;SHT31;67736;51.978;5.656;2024-01-06T07:04:15;6.1;69.9
78438;SHT31;67736;51.978;5.656;2024-01-06T07:06:45;6.1;69.9
78438;SHT31;67736;51.978;5.656;2024-01-06T07:09:14;6.2;69.6
78438;SHT31;67736;51.978;5.656;2024-01-06T07:11:44;6.1;69.7
78438;SHT31;67736;51.978;5.656;2024-01-06T07:14:13;6.1;70.3
78438;SHT31;67736;51.978;5.656;2024-01-06T07:16:43;6.1;69.9
78438;SHT31;67736;51.978;5.656;2024-01-06T07:19:12;6.1;70.5
78438;SHT31;67736;51.978;5.656;2024-01-06T07:21:42;6.1;70.0
78438;SHT31;67736;51.978;5.656;2024-01-06T07:24:12;6.2;70.0
78438;SHT31;67736;51.978;5.656;2024-01-06T07:26:42;6.2;69.7
78438;SHT31;67736;51.978;5.656;2024-01-06T07:29:11;6.2;70.2
78438;SHT31;67736;51.978;5.656;2024-01-06T07:31:41;6.2;69.7
78438;SHT31;67736;51.978;5.656;2024-01-06T07:34:10;6.1;69.5
78438;SHT31;67736;51.978;5.656;2024-01-06T07:36:40;6.1;69.4
78438;SHT31;67736;51.978;5.656;2024-01-06T07:39:09;6.1;69.7
78438;SHT31;67736;51.978;5.656;2024-01-06T07:41:39;6.1;69.8
78438;SHT31;67736;51.978;5.656;2024-01-06T07:44:08;6.1;70.3
78438;SHT31;67736;51.978;5.656;2024-01-06T07:46:38;6.0;70.6
78438;SHT31;67736;51.978;5.656;2024-01-06T07:49:08;6.0;70.7
78438;SHT31;67736;51.978;5.656;2024-01-06T07:51:37;6.0;70.5
78438;SHT31;67736;51.978;5.656;2024-01-06T07:54:09;6.0;70.4
78438;SHT31;67736;51.978;5.656;2024-01-06T07:56:39;6.0;70.6
78438;SHT31;67736;51.978;5.656;2024-01-06T07:59:09;6.0;70.6
78438;SHT31;67736;51.978;5.656;2024-01-06T08:01:39;6.0;70.5
78438;SHT31;67736;51.978;5.656;2024-01-06T08:04:10;6.0;70.6
78438;SHT31;67736;51.978;5.656;2024-01-06T08:06:40;6.0;70.4
78438;SHT31;67736;51.978;5.656;2024-01-06T08:09:09;6.0;70.5
78438;SHT31;67736;51.978;5.656;2024-01-06T08:11:39;6.0;70.5
78438;SHT31;67736;51.978;5.656;2024-01-06T08:14:10;6.0;70.6
78438;SHT31;67736;51.978;5.656;2024-01-06T08:16:40;6.0;70.3
78438;SHT31;67736;51.978;5.656;2024-01-06T08:19:09;6.0;70.5
78438;SHT31;67736;51.978;5.656;2024-01-06T08:21:39;6.0;70.4
78438;SHT31;67736;51.978;5.656;2024-01-06T08:24:08;6.0;70.1
78438;SHT31;67736;51.978;5.656;2024-01-06T08:26:38;6.0;70.3
78438;SHT31;67736;51.978;5.656;2024-01-06T08:29:07;6.0;70.2
78438;SHT31;67736;51.978;5.656;2024-01-06T08:31:37;6.0;69.9
78438;SHT31;67736;51.978;5.656;2024-01-06T08:34:06;6.0;69.8
78438;SHT31;67736;51.978;5.656;2024-01-06T08:36:36;6.0;69.8
78438;SHT31;67736;51.978;5.656;2024-01-06T08:39:06;6.0;70.1
78438;SHT31;67736;51.978;5.656;2024-01-06T08:41:35;5.9;70.5
78438;SHT31;67736;51.978;5.656;2024-01-06T08:44:05;6.0;70.2
78438;SHT31;67736;51.978;5.656;2024-01-06T08:46:35;6.0;70.2
78438;SHT31;67736;51.978;5.656;2024-01-06T08:49:04;6.0;70.5
78438;SHT31;67736;51.978;5.656;2024-01-06T08:51:34;6.0;70.3
78438;SHT31;67736;51.978;5.656;2024-01-06T08:54:03;6.0;70.1
78438;SHT31;67736;51.978;5.656;2024-01-06T08:56:34;6.0;69.9
78438;SHT31;67736;51.978;5.656;2024-01-06T08:59:05;6.0;69.9
78438;SHT31;67736;51.978;5.656;2024-01-06T09:01:36;6.0;70.2
78438;SHT31;67736;51.978;5.656;2024-01-06T09:04:06;6.0;70.2
78438;SHT31;67736;51.978;5.656;2024-01-06T09:06:38;6.1;69.6
78438;SHT31;67736;51.978;5.656;2024-01-06T09:09:09;6.1;69.5
78438;SHT31;67736;51.978;5.656;2024-01-06T09:11:39;6.1;69.8
78438;SHT31;67736;51.978;5.656;2024-01-06T09:14:09;6.1;69.6
78438;SHT31;67736;51.978;5.656;2024-01-06T09:16:41;6.1;69.4
78438;SHT31;67736;51.978;5.656;2024-01-06T09:19:11;6.1;69.3
78438;SHT31;67736;51.978;5.656;2024-01-06T09:21:40;6.1;69.4
78438;SHT31;67736;51.978;5.656;2024-01-06T09:24:10;6.1;69.0
78438;SHT31;67736;51.978;5.656;2024-01-06T09:26:39;6.1;69.4
78438;SHT31;67736;51.978;5.656;2024-01-06T09:29:09;6.1;69.7
78438;SHT31;67736;51.978;5.656;2024-01-06T09:31:38;6.1;69.8
78438;SHT31;67736;51.978;5.656;2024-01-06T09:34:09;6.1;69.3
78438;SHT31;67736;51.978;5.656;2024-01-06T09:36:39;6.2;68.7
78438;SHT31;67736;51.978;5.656;2024-01-06T09:39:09;6.2;68.2
78438;SHT31;67736;51.978;5.656;2024-01-06T09:41:40;6.2;68.2
78438;SHT31;67736;51.978;5.656;2024-01-06T09:44:10;6.2;68.2
78438;SHT31;67736;51.978;5.656;2024-01-06T09:46:40;6.1;68.1
78438;SHT31;67736;51.978;5.656;2024-01-06T09:49:11;6.1;67.9
78438;SHT31;67736;51.978;5.656;2024-01-06T09:51:43;6.1;68.5
78438;SHT31;67736;51.978;5.656;2024-01-06T09:54:22;6.1;68.3
78438;SHT31;67736;51.978;5.656;2024-01-06T09:56:52;6.1;68.3
78438;SHT31;67736;51.978;5.656;2024-01-06T09:59:23;6.1;67.8
78438;SHT31;67736;51.978;5.656;2024-01-06T10:01:57;6.1;68.0
78438;SHT31;67736;51.978;5.656;2024-01-06T10:04:29;6.1;68.0
78438;SHT31;67736;51.978;5.656;2024-01-06T10:07:00;6.1;68.1
78438;SHT31;67736;51.978;5.656;2024-01-06T10:09:29;6.1;68.3
78438;SHT31;67736;51.978;5.656;2024-01-06T10:12:01;6.1;68.2
78438;SHT31;67736;51.978;5.656;2024-01-06T10:14:30;6.1;68.4
78438;SHT31;67736;51.978;5.656;2024-01-06T10:17:00;6.1;68.3
78438;SHT31;67736;51.978;5.656;2024-01-06T10:19:30;6.1;68.4
78438;SHT31;67736;51.978;5.656;2024-01-06T10:22:00;6.1;68.6
78438;SHT31;67736;51.978;5.656;2024-01-06T10:24:30;6.2;68.0
78438;SHT31;67736;51.978;5.656;2024-01-06T10:27:00;6.2;67.7
78438;SHT31;67736;51.978;5.656;2024-01-06T10:29:30;6.2;67.7
78438;SHT31;67736;51.978;5.656;2024-01-06T10:31:59;6.2;67.7
78438;SHT31;67736;51.978;5.656;2024-01-06T10:34:29;6.2;67.9
78438;SHT31;67736;51.978;5.656;2024-01-06T10:37:00;6.2;67.3
78438;SHT31;67736;51.978;5.656;2024-01-06T10:39:29;6.2;66.9
78438;SHT31;67736;51.978;5.656;2024-01-06T10:42:00;6.2;66.9
78438;SHT31;67736;51.978;5.656;2024-01-06T10:44:31;6.2;66.8
78438;SHT31;67736;51.978;5.656;2024-01-06T10:47:03;6.2;66.5
78438;SHT31;67736;51.978;5.656;2024-01-06T10:49:35;6.2;66.5
78438;SHT31;67736;51.978;5.656;2024-01-06T10:52:06;6.2;66.6
78438;SHT31;67736;51.978;5.656;2024-01-06T10:54:40;6.2;66.6
78438;SHT31;67736;51.978;5.656;2024-01-06T10:57:10;6.2;66.7
78438;SHT31;67736;51.978;5.656;2024-01-06T10:59:41;6.1;66.0
78438;SHT31;67736;51.978;5.656;2024-01-06T11:02:12;6.1;66.6
78438;SHT31;67736;51.978;5.656;2024-01-06T11:04:45;6.1;66.7
78438;SHT31;67736;51.978;5.656;2024-01-06T11:07:17;6.1;66.4
78438;SHT31;67736;51.978;5.656;2024-01-06T11:09:52;6.1;66.8
78438;SHT31;67736;51.978;5.656;2024-01-06T11:12:23;6.0;67.2
78438;SHT31;67736;51.978;5.656;2024-01-06T11:14:54;6.0;67.4
78438;SHT31;67736;51.978;5.656;2024-01-06T11:24:18;6.1;67.1
78438;SHT31;67736;51.978;5.656;2024-01-06T11:26:56;6.1;67.5
78438;SHT31;67736;51.978;5.656;2024-01-06T11:29:27;6.1;67.3
78438;SHT31;67736;51.978;5.656;2024-01-06T11:32:18;6.1;67.2
78438;SHT31;67736;51.978;5.656;2024-01-06T11:34:50;6.2;66.8
78438;SHT31;67736;51.978;5.656;2024-01-06T11:37:23;6.2;67.2
78438;SHT31;67736;51.978;5.656;2024-01-06T11:39:53;6.2;66.9
78438;SHT31;67736;51.978;5.656;2024-01-06T11:42:33;6.2;67.2
78438;SHT31;67736;51.978;5.656;2024-01-06T11:45:04;6.2;67.4
78438;SHT31;67736;51.978;5.656;2024-01-06T11:47:36;6.2;67.1
78438;SHT31;67736;51.978;5.656;2024-01-06T11:50:06;6.2;67.2
78438;SHT31;67736;51.978;5.656;2024-01-06T11:52:36;6.2;67.3
78438;SHT31;67736;51.978;5.656;2024-01-06T11:55:06;6.2;67.4
78438;SHT31;67736;51.978;5.656;2024-01-06T11:57:37;6.3;66.9
78438;SHT31;67736;51.978;5.656;2024-01-06T12:00:08;6.3;67.0
78438;SHT31;67736;51.978;5.656;2024-01-06T12:02:38;6.3;67.0
78438;SHT31;67736;51.978;5.656;2024-01-06T12:05:12;6.3;67.1
78438;SHT31;67736;51.978;5.656;2024-01-06T12:07:44;6.3;67.2
78438;SHT31;67736;51.978;5.656;2024-01-06T12:10:20;6.3;66.9
78438;SHT31;67736;51.978;5.656;2024-01-06T12:13:24;6.3;67.5
78438;SHT31;67736;51.978;5.656;2024-01-06T12:15:54;6.3;67.0
78438;SHT31;67736;51.978;5.656;2024-01-06T12:18:25;6.2;67.1
78438;SHT31;67736;51.978;5.656;2024-01-06T12:20:54;6.2;67.4
78438;SHT31;67736;51.978;5.656;2024-01-06T12:23:27;6.2;68.1
78438;SHT31;67736;51.978;5.656;2024-01-06T12:25:57;6.2;68.2
78438;SHT31;67736;51.978;5.656;2024-01-06T12:28:27;6.3;68.1
78438;SHT31;67736;51.978;5.656;2024-01-06T12:30:56;6.3;67.7
78438;SHT31;67736;51.978;5.656;2024-01-06T12:33:26;6.3;67.4
78438;SHT31;67736;51.978;5.656;2024-01-06T12:35:57;6.3;67.7
78438;SHT31;67736;51.978;5.656;2024-01-06T12:38:28;6.3;67.5
78438;SHT31;67736;51.978;5.656;2024-01-06T12:41:00;6.3;67.4
78438;SHT31;67736;51.978;5.656;2024-01-06T12:43:30;6.3;67.4
78438;SHT31;67736;51.978;5.656;2024-01-06T12:45:59;6.3;67.3
78438;SHT31;67736;51.978;5.656;2024-01-06T12:48:29;6.3;67.4
78438;SHT31;67736;51.978;5.656;2024-01-06T12:50:59;6.3;67.4
78438;SHT31;67736;51.978;5.656;2024-01-06T12:53:28;6.3;67.6
78438;SHT31;67736;51.978;5.656;2024-01-06T12:55:58;6.3;67.6
78438;SHT31;67736;51.978;5.656;2024-01-06T12:58:27;6.3;67.9
78438;SHT31;67736;51.978;5.656;2024-01-06T13:00:57;6.3;68.0
78438;SHT31;67736;51.978;5.656;2024-01-06T13:03:26;6.3;67.7
78438;SHT31;67736;51.978;5.656;2024-01-06T13:05:56;6.3;66.8
78438;SHT31;67736;51.978;5.656;2024-01-06T13:08:26;6.3;67.1
78438;SHT31;67736;51.978;5.656;2024-01-06T13:10:56;6.3;66.6
78438;SHT31;67736;51.978;5.656;2024-01-06T13:13:25;6.2;66.7
78438;SHT31;67736;51.978;5.656;2024-01-06T13:15:55;6.2;66.7
78438;SHT31;67736;51.978;5.656;2024-01-06T13:18:26;6.2;66.9
78438;SHT31;67736;51.978;5.656;2024-01-06T13:20:56;6.2;66.7
78438;SHT31;67736;51.978;5.656;2024-01-06T13:23:28;6.2;66.1
78438;SHT31;67736;51.978;5.656;2024-01-06T13:25:57;6.2;66.6
78438;SHT31;67736;51.978;5.656;2024-01-06T13:28:27;6.2;66.3
78438;SHT31;67736;51.978;5.656;2024-01-06T13:30:56;6.1;66.3
78438;SHT31;67736;51.978;5.656;2024-01-06T13:33:26;6.1;66.6
78438;SHT31;67736;51.978;5.656;2024-01-06T13:35:56;6.1;66.7
78438;SHT31;67736;51.978;5.656;2024-01-06T13:38:26;6.0;67.0
78438;SHT31;67736;51.978;5.656;2024-01-06T13:40:56;6.0;67.2
78438;SHT31;67736;51.978;5.656;2024-01-06T13:43:25;6.0;67.6
78438;SHT31;67736;51.978;5.656;2024-01-06T13:45:55;6.0;67.8
78438;SHT31;67736;51.978;5.656;2024-01-06T13:48:24;6.0;67.8
78438;SHT31;67736;51.978;5.656;2024-01-06T13:50:54;6.0;67.7
78438;SHT31;67736;51.978;5.656;2024-01-06T13:53:24;6.0;67.8
78438;SHT31;67736;51.978;5.656;2024-01-06T13:55:54;6.0;67.9
78438;SHT31;67736;51.978;5.656;2024-01-06T13:58:24;6.0;67.7
78438;SHT31;67736;51.978;5.656;2024-01-06T14:00:53;6.0;67.6
78438;SHT31;67736;51.978;5.656;2024-01-06T14:03:23;6.0;67.9
78438;SHT31;67736;51.978;5.656;2024-01-06T14:05:53;6.0;68.1
78438;SHT31;67736;51.978;5.656;2024-01-06T14:08:24;6.0;68.1
78438;SHT31;67736;51.978;5.656;2024-01-06T14:10:54;6.0;67.9
78438;SHT31;67736;51.978;5.656;2024-01-06T14:13:23;6.0;68.2
78438;SHT31;67736;51.978;5.656;2024-01-06T14:15:53;6.0;68.0
78438;SHT31;67736;51.978;5.656;2024-01-06T14:18:23;6.0;68.0
78438;SHT31;67736;51.978;5.656;2024-01-06T14:20:54;6.0;67.9
78438;SHT31;67736;51.978;5.656;2024-01-06T14:23:24;6.0;67.8
78438;SHT31;67736;51.978;5.656;2024-01-06T14:25:57;6.0;67.8
78438;SHT31;67736;51.978;5.656;2024-01-06T14:28:26;6.0;67.5
78438;SHT31;67736;51.978;5.656;2024-01-06T14:30:57;6.0;67.6
78438;SHT31;67736;51.978;5.656;2024-01-06T14:33:28;6.0;67.9
78438;SHT31;67736;51.978;5.656;2024-01-06T14:35:58;6.0;67.9
78438;SHT31;67736;51.978;5.656;2024-01-06T14:38:28;6.0;68.3
78438;SHT31;67736;51.978;5.656;2024-01-06T14:40:57;6.0;68.0
78438;SHT31;67736;51.978;5.656;2024-01-06T14:43:27;6.0;67.6
78438;SHT31;67736;51.978;5.656;2024-01-06T14:45:57;6.0;67.7
78438;SHT31;67736;51.978;5.656;2024-01-06T14:48:27;6.0;67.6
78438;SHT31;67736;51.978;5.656;2024-01-06T14:50:56;6.0;67.6
78438;SHT31;67736;51.978;5.656;2024-01-06T14:53:26;6.0;67.6
78438;SHT31;67736;51.978;5.656;2024-01-06T14:55:55;6.0;67.7
78438;SHT31;67736;51.978;5.656;2024-01-06T14:58:25;6.0;67.7
78438;SHT31;67736;51.978;5.656;2024-01-06T15:00:54;6.0;68.0
78438;SHT31;67736;51.978;5.656;2024-01-06T15:03:25;6.0;68.2
78438;SHT31;67736;51.978;5.656;2024-01-06T15:05:55;6.0;68.3
78438;SHT31;67736;51.978;5.656;2024-01-06T15:08:24;6.0;68.1
78438;SHT31;67736;51.978;5.656;2024-01-06T15:10:56;6.0;68.1
78438;SHT31;67736;51.978;5.656;2024-01-06T15:13:25;6.0;68.3
78438;SHT31;67736;51.978;5.656;2024-01-06T15:15:55;6.0;68.2
78438;SHT31;67736;51.978;5.656;2024-01-06T15:18:25;6.0;67.8
78438;SHT31;67736;51.978;5.656;2024-01-06T15:20:54;6.0;67.6
78438;SHT31;67736;51.978;5.656;2024-01-06T15:23:24;6.0;67.7
78438;SHT31;67736;51.978;5.656;2024-01-06T15:25:53;6.0;67.7
78438;SHT31;67736;51.978;5.656;2024-01-06T15:28:25;6.0;67.7
78438;SHT31;67736;51.978;5.656;2024-01-06T15:30:54;6.0;67.5
78438;SHT31;67736;51.978;5.656;2024-01-06T15:33:25;6.0;67.2
78438;SHT31;67736;51.978;5.656;2024-01-06T15:35:55;6.0;67.7
78438;SHT31;67736;51.978;5.656;2024-01-06T15:38:24;6.0;67.6
78438;SHT31;67736;51.978;5.656;2024-01-06T15:40:54;6.0;67.3
78438;SHT31;67736;51.978;5.656;2024-01-06T15:43:24;6.0;67.6
78438;SHT31;67736;51.978;5.656;2024-01-06T15:45:53;6.0;67.2
78438;SHT31;67736;51.978;5.656;2024-01-06T15:48:23;6.0;67.3
78438;SHT31;67736;51.978;5.656;2024-01-06T15:50:53;5.9;67.3
78438;SHT31;67736;51.978;5.656;2024-01-06T15:53:22;5.9;67.0
78438;SHT31;67736;51.978;5.656;2024-01-06T15:55:52;5.9;67.3
78438;SHT31;67736;51.978;5.656;2024-01-06T15:58:21;5.9;66.9
78438;SHT31;67736;51.978;5.656;2024-01-06T16:00:51;5.9;66.9
78438;SHT31;67736;51.978;5.656;2024-01-06T16:03:21;5.9;67.1
78438;SHT31;67736;51.978;5.656;2024-01-06T16:05:50;6.0;66.7
78438;SHT31;67736;51.978;5.656;2024-01-06T16:08:20;6.0;66.5
78438;SHT31;67736;51.978;5.656;2024-01-06T16:10:51;6.0;66.8
78438;SHT31;67736;51.978;5.656;2024-01-06T16:13:21;6.0;66.9
78438;SHT31;67736;51.978;5.656;2024-01-06T16:15:51;6.0;66.9
78438;SHT31;67736;51.978;5.656;2024-01-06T16:18:21;6.0;66.8
78438;SHT31;67736;51.978;5.656;2024-01-06T16:20:53;6.0;66.4
78438;SHT31;67736;51.978;5.656;2024-01-06T16:23:24;6.0;66.7
78438;SHT31;67736;51.978;5.656;2024-01-06T16:25:56;6.0;67.1
78438;SHT31;67736;51.978;5.656;2024-01-06T16:28:25;6.0;66.7
78438;SHT31;67736;51.978;5.656;2024-01-06T16:30:55;6.0;66.0
78438;SHT31;67736;51.978;5.656;2024-01-06T16:33:24;6.0;65.9
78438;SHT31;67736;51.978;5.656;2024-01-06T16:35:54;6.0;66.1
78438;SHT31;67736;51.978;5.656;2024-01-06T16:38:24;6.0;66.4
78438;SHT31;67736;51.978;5.656;2024-01-06T16:40:57;6.0;66.4
78438;SHT31;67736;51.978;5.656;2024-01-06T16:43:26;6.0;66.0